Time;durP1;ratioP1;P1;durP2;ratioP2;P2;SDS_P1;SDS_P2;PMS_P1;PMS_P2;Temp;Humidity;BMP_temperature;BMP_pressure;BME280_temperature;BME280_humidity;BME280_pressure;Samples;Min_cycle;Max_cycle;Signal;HPM_P1;HPM_P2
2021/09/30 00:00:04;;;;;;;23.02;13.72;;;;;;;3.97;100.00;100979.95;1723589;80;22011;-70
2021/09/30 00:02:35;;;;;;;21.40;13.85;;;;;;;3.97;100.00;100979.95;1656371;83;21100;-70
2021/09/30 00:05:03;;;;;;;22.67;13.58;;;;;;;3.92;100.00;100975.22;1661101;84;22200;-72
2021/09/30 00:07:31;;;;;;;19.87;12.10;;;;;;;3.92;100.00;100975.22;1668284;84;22065;-69
2021/09/30 00:09:58;;;;;;;21.77;13.45;;;;;;;3.92;100.00;100974.39;1676924;84;20952;-69
2021/09/30 00:12:31;;;;;;;25.15;13.98;;;;;;;3.87;100.00;100979.71;1678791;83;21506;-71
2021/09/30 00:15:05;;;;;;;21.37;13.15;;;;;;;3.87;100.00;100979.71;1692191;83;21009;-70
2021/09/30 00:33:52;;;;;;;25.52;14.20;;;;;;;3.72;100.00;100979.35;1673045;84;21567;-70
2021/09/30 00:41:55;;;;;;;23.80;13.25;;;;;;;3.61;100.00;100976.92;1697671;83;21641;-72
2021/09/30 00:47:34;;;;;;;25.32;13.75;;;;;;;3.60;100.00;100980.17;1688578;84;21544;-72
2021/09/30 01:18:43;;;;;;;24.18;14.33;;;;;;;3.38;100.00;100990.50;1737425;80;21503;-71
2021/09/30 01:46:21;;;;;;;30.20;16.17;;;;;;;3.17;100.00;100981.83;1686019;82;21472;-70
2021/09/30 02:19:31;;;;;;;25.40;15.30;;;;;;;3.12;100.00;100974.09;1753887;80;20986;-70
2021/09/30 02:24:46;;;;;;;23.95;14.58;;;;;;;3.12;100.00;100976.27;1752819;80;26923;-69
2021/09/30 02:38:54;;;;;;;28.73;15.18;;;;;;;3.13;100.00;100979.81;1756660;80;20913;-68
2021/09/30 02:59:57;;;;;;;28.45;16.20;;;;;;;2.96;100.00;100973.69;1748385;80;21011;-71
2021/09/30 03:02:25;;;;;;;27.93;15.83;;;;;;;2.97;100.00;100979.41;1761741;80;26889;-70
2021/09/30 03:04:52;;;;;;;28.73;15.95;;;;;;;2.97;100.00;100986.72;1756940;80;21173;-71
2021/09/30 03:07:19;;;;;;;30.20;15.83;;;;;;;2.99;100.00;100976.47;1752849;80;21003;-70
2021/09/30 03:09:48;;;;;;;24.27;14.15;;;;;;;2.99;100.00;100980.53;1746933;81;21102;-70
2021/09/30 03:12:27;;;;;;;24.47;15.10;;;;;;;2.99;100.00;100983.25;1752364;80;20932;-71
2021/09/30 03:15:04;;;;;;;23.05;14.18;;;;;;;2.99;100.00;100978.65;1768667;80;20873;-70
2021/09/30 03:17:33;;;;;;;23.60;14.33;;;;;;;2.99;100.00;100988.67;1760754;80;21474;-70
2021/09/30 03:20:03;;;;;;;26.05;14.23;;;;;;;2.98;100.00;100989.20;1771074;80;21480;-70
2021/09/30 03:22:29;;;;;;;27.62;16.05;;;;;;;2.97;100.00;100984.00;1760058;80;21482;-70
2021/09/30 03:24:56;;;;;;;28.45;14.80;;;;;;;2.93;100.00;100982.28;1757297;81;21005;-70
2021/09/30 03:27:23;;;;;;;28.57;15.45;;;;;;;2.92;100.00;100986.58;1746268;81;21201;-70
2021/09/30 03:29:50;;;;;;;27.35;15.55;;;;;;;2.90;100.00;100985.98;1706610;81;21046;-71
2021/09/30 03:32:17;;;;;;;24.07;14.18;;;;;;;2.90;100.00;100983.27;1758465;80;21009;-71
2021/09/30 03:34:45;;;;;;;29.15;15.80;;;;;;;2.91;100.00;100986.28;1753936;80;21047;-70
2021/09/30 03:37:12;;;;;;;26.15;13.88;;;;;;;2.89;100.00;100986.52;1729207;81;21424;-69
2021/09/30 03:39:39;;;;;;;27.30;14.65;;;;;;;2.89;100.00;100988.40;1739669;81;21431;-69
2021/09/30 03:42:05;;;;;;;29.12;14.40;;;;;;;2.87;100.00;100986.48;1751705;80;21558;-69
2021/09/30 03:44:36;;;;;;;30.45;16.23;;;;;;;2.85;100.00;100990.77;1703595;83;20965;-69
2021/09/30 03:47:04;;;;;;;29.18;15.18;;;;;;;2.83;100.00;100986.63;1682242;84;20932;-69
2021/09/30 03:49:35;;;;;;;27.45;15.65;;;;;;;2.80;100.00;100988.45;1694411;83;20915;-69
2021/09/30 03:52:13;;;;;;;32.78;16.55;;;;;;;2.77;100.00;100992.98;1757214;81;20959;-69
2021/09/30 03:57:09;;;;;;;27.10;15.55;;;;;;;2.68;100.00;100982.97;1753901;80;20968;-69
2021/09/30 03:59:34;;;;;;;25.55;14.68;;;;;;;2.68;100.00;100988.92;1720627;81;20986;-69
2021/09/30 04:02:03;;;;;;;30.32;17.02;;;;;;;2.62;100.00;100987.42;1752675;80;20909;-69
2021/09/30 04:04:33;;;;;;;28.92;16.73;;;;;;;2.59;100.00;100992.48;1689555;83;20953;-69
2021/09/30 04:07:02;;;;;;;30.30;17.25;;;;;;;2.55;100.00;100992.10;1694619;83;21129;-69
2021/09/30 04:09:29;;;;;;;27.77;16.77;;;;;;;2.52;100.00;100989.84;1758568;80;21075;-69
2021/09/30 04:12:01;;;;;;;34.25;18.12;;;;;;;2.50;100.00;100989.77;1755455;80;21484;-71
2021/09/30 04:14:28;;;;;;;30.17;17.52;;;;;;;2.50;100.00;100991.95;1740749;80;20940;-69
2021/09/30 04:16:57;;;;;;;33.70;18.55;;;;;;;2.50;100.00;100989.77;1759121;81;20992;-70
2021/09/30 04:19:24;;;;;;;28.65;17.07;;;;;;;2.49;100.00;100995.72;1756355;81;21751;-72
2021/09/30 04:21:52;;;;;;;31.52;17.30;;;;;;;2.52;100.00;100997.98;1760322;80;21600;-75
2021/09/30 04:24:20;;;;;;;27.30;15.48;;;;;;;2.55;100.00;100993.98;1747287;81;20939;-71
2021/09/30 04:26:50;;;;;;;27.22;15.38;;;;;;;2.56;100.00;100995.11;1766848;80;20920;-70
2021/09/30 04:29:17;;;;;;;33.30;16.93;;;;;;;2.61;100.00;100995.78;1765620;81;21460;-70
2021/09/30 04:31:45;;;;;;;28.95;15.80;;;;;;;2.64;100.00;100998.87;1761807;81;21081;-69
2021/09/30 04:34:12;;;;;;;34.43;16.42;;;;;;;2.70;100.00;100992.23;1753404;80;20908;-69
2021/09/30 04:36:40;;;;;;;28.35;14.65;;;;;;;2.77;100.00;100995.69;1751687;81;20905;-69
2021/09/30 04:39:07;;;;;;;27.40;15.72;;;;;;;2.80;100.00;100993.34;1640897;85;21069;-70
2021/09/30 04:41:34;;;;;;;27.82;16.55;;;;;;;2.87;100.00;100997.33;1727171;82;20933;-70
2021/09/30 04:44:00;;;;;;;29.10;17.50;;;;;;;2.93;100.00;100998.56;1732056;81;21534;-69
2021/09/30 04:46:27;;;;;;;37.53;16.05;;;;;;;2.97;100.00;101003.83;1735500;81;20937;-73
2021/09/30 04:49:12;;;;;;;29.60;17.65;;;;;;;3.03;100.00;101006.67;1730656;80;21032;-68
2021/09/30 04:51:39;;;;;;;28.27;17.52;;;;;;;3.11;100.00;101004.99;1729375;80;20972;-68
2021/09/30 04:54:06;;;;;;;33.90;19.77;;;;;;;3.17;100.00;100998.11;1747646;81;20957;-68
2021/09/30 04:56:34;;;;;;;27.60;16.52;;;;;;;3.26;100.00;101004.04;1729698;81;21167;-68
2021/09/30 04:59:03;;;;;;;31.45;17.87;;;;;;;3.31;100.00;101000.09;1718815;81;21522;-69
2021/09/30 05:01:30;;;;;;;31.90;17.12;;;;;;;3.39;100.00;101000.30;1694107;81;21442;-72
2021/09/30 05:03:58;;;;;;;26.82;15.53;;;;;;;3.47;100.00;100998.56;1699266;82;20878;-71
2021/09/30 05:06:24;;;;;;;28.07;16.37;;;;;;;3.58;100.00;101001.83;1732314;81;20981;-71
2021/09/30 05:08:56;;;;;;;25.20;15.40;;;;;;;3.69;100.00;101002.38;1732150;82;22088;-70
2021/09/30 05:11:20;;;;;;;28.02;15.65;;;;;;;3.79;100.00;100998.55;1736059;81;20986;-71
2021/09/30 05:13:53;;;;;;;23.73;15.15;;;;;;;4.02;100.00;101003.69;1736518;81;20894;-71
2021/09/30 05:16:19;;;;;;;27.22;15.70;;;;;;;4.02;100.00;101003.69;1732865;81;21040;-73
2021/09/30 05:18:54;;;;;;;21.73;13.60;;;;;;;4.13;100.00;101001.47;1708692;81;21013;-71
2021/09/30 05:21:21;;;;;;;21.40;13.50;;;;;;;4.34;100.00;101009.01;1729840;80;21134;-71
2021/09/30 05:23:51;;;;;;;27.17;15.00;;;;;;;4.34;100.00;101009.01;1748259;80;20893;-73
2021/09/30 05:26:18;;;;;;;22.52;14.25;;;;;;;4.46;100.00;101013.89;1733074;80;20892;-70
2021/09/30 05:28:45;;;;;;;26.20;15.40;;;;;;;4.68;100.00;101009.97;1755451;80;20972;-71
2021/09/30 05:31:11;;;;;;;25.80;14.00;;;;;;;4.68;100.00;101009.97;1718533;82;21021;-72
2021/09/30 05:33:41;;;;;;;27.25;14.05;;;;;;;4.82;100.00;101020.86;1690516;83;21953;-70
2021/09/30 05:36:08;;;;;;;30.75;14.55;;;;;;;4.92;100.00;101023.79;1698286;83;20936;-71
2021/09/30 05:38:35;;;;;;;24.35;13.68;;;;;;;5.05;100.00;101020.48;1707195;83;21492;-71
2021/09/30 05:41:02;;;;;;;24.63;12.68;;;;;;;5.16;100.00;101023.16;1706391;83;21345;-71
2021/09/30 05:43:34;;;;;;;24.25;12.75;;;;;;;5.38;100.00;101030.06;1698798;83;21446;-71
2021/09/30 05:45:59;;;;;;;27.20;14.68;;;;;;;5.38;100.00;101030.06;1698691;83;21143;-71
2021/09/30 05:48:26;;;;;;;24.67;15.05;;;;;;;5.48;100.00;101026.16;1666405;85;21057;-71
2021/09/30 05:50:53;;;;;;;20.80;12.33;;;;;;;5.58;100.00;101022.78;1670664;85;20989;-72
2021/09/30 05:53:34;;;;;;;25.37;12.82;;;;;;;5.67;100.00;101018.58;1660541;84;21495;-70
2021/09/30 05:56:05;;;;;;;23.12;13.53;;;;;;;5.80;100.00;101025.56;1731960;82;21511;-70
2021/09/30 05:58:32;;;;;;;26.37;13.03;;;;;;;5.93;100.00;101026.63;1732731;82;21992;-70
2021/09/30 06:01:19;;;;;;;22.95;13.18;;;;;;;6.03;100.00;101028.69;1743400;82;21031;-71
2021/09/30 06:14:11;;;;;;;21.23;11.83;;;;;;;6.57;97.29;101035.98;1732937;81;21016;-73
2021/09/30 06:16:38;;;;;;;17.92;11.05;;;;;;;6.67;96.03;101039.92;1737943;82;21532;-73
2021/09/30 06:19:06;;;;;;;21.25;11.15;;;;;;;6.75;95.33;101031.30;1736295;81;21111;-73
2021/09/30 06:21:34;;;;;;;16.23;11.38;;;;;;;6.86;96.07;101029.80;1724001;80;21508;-73
2021/09/30 06:24:01;;;;;;;23.47;13.18;;;;;;;6.98;93.80;101035.09;1750834;80;21129;-74
2021/09/30 06:26:28;;;;;;;19.05;11.53;;;;;;;7.11;94.84;101032.50;1741239;81;21623;-71
2021/09/30 06:29:00;;;;;;;19.20;11.93;;;;;;;7.23;93.41;101034.01;1724389;81;20879;-71
2021/09/30 06:31:27;;;;;;;21.68;12.78;;;;;;;7.36;92.71;101029.22;1737987;82;20906;-71
2021/09/30 06:34:02;;;;;;;18.98;11.88;;;;;;;7.46;92.80;101032.05;1687490;82;21578;-72
2021/09/30 06:36:39;;;;;;;18.82;11.68;;;;;;;7.59;92.82;101039.80;1736448;81;21001;-71
2021/09/30 06:39:06;;;;;;;19.70;11.85;;;;;;;7.73;91.40;101038.28;1733206;81;20994;-71
2021/09/30 06:41:34;;;;;;;18.02;10.60;;;;;;;7.88;91.93;101034.84;1730224;82;21498;-72
2021/09/30 06:44:19;;;;;;;26.65;11.78;;;;;;;8.04;92.39;101038.52;1684024;83;21025;-72
2021/09/30 06:47:04;;;;;;;19.00;10.78;;;;;;;8.22;89.41;101036.70;1727639;81;21082;-71
2021/09/30 06:49:32;;;;;;;20.00;10.58;;;;;;;8.39;89.54;101044.78;1708542;83;21167;-72
2021/09/30 06:52:06;;;;;;;18.17;10.30;;;;;;;8.54;88.48;101041.58;1662334;83;21099;-71
2021/09/30 06:54:34;;;;;;;13.10;9.00;;;;;;;8.79;87.92;101048.24;1687002;84;20952;-72
2021/09/30 06:57:05;;;;;;;17.60;9.93;;;;;;;9.22;87.43;101041.00;1682627;85;21507;-72
2021/09/30 06:59:35;;;;;;;14.25;9.00;;;;;;;9.77;83.29;101028.44;1661817;85;21003;-74
2021/09/30 07:02:22;;;;;;;14.58;8.63;;;;;;;10.22;78.19;101030.33;1609749;88;21693;-69
2021/09/30 07:05:00;;;;;;;15.98;8.83;;;;;;;10.62;75.05;101035.97;1601117;89;20964;-70
2021/09/30 07:07:46;;;;;;;14.03;7.45;;;;;;;10.98;74.84;101037.44;1632829;86;21083;-67
2021/09/30 07:10:13;;;;;;;14.65;8.53;;;;;;;11.42;72.85;101036.65;1658092;86;21526;-68
2021/09/30 07:12:41;;;;;;;13.98;7.72;;;;;;;11.69;69.37;101035.60;1658250;86;20912;-69
2021/09/30 07:15:11;;;;;;;10.65;7.65;;;;;;;11.92;69.18;101037.37;1658063;86;21159;-70
2021/09/30 07:17:37;;;;;;;11.50;6.87;;;;;;;12.10;67.08;101038.05;1657988;86;20984;-69
2021/09/30 07:20:06;;;;;;;9.15;6.08;;;;;;;12.28;63.01;101037.84;1657965;86;20955;-71
2021/09/30 07:22:33;;;;;;;13.28;5.70;;;;;;;12.38;61.31;101028.10;1659575;83;21017;-70
2021/09/30 07:24:59;;;;;;;10.30;6.85;;;;;;;12.50;61.16;101032.09;1699534;83;21048;-68
2021/09/30 07:27:26;;;;;;;10.40;6.55;;;;;;;12.59;60.43;101039.72;1693775;83;21569;-70
2021/09/30 07:29:53;;;;;;;9.38;5.62;;;;;;;12.71;61.47;101033.24;1719749;83;20981;-69
2021/09/30 07:32:20;;;;;;;11.12;7.00;;;;;;;12.93;60.20;101036.25;1683361;83;20999;-69
2021/09/30 07:34:47;;;;;;;10.60;6.08;;;;;;;13.15;59.44;101035.12;1684879;85;21711;-69
2021/09/30 07:37:15;;;;;;;9.55;6.10;;;;;;;13.40;59.34;101035.33;1685962;85;20967;-68
2021/09/30 07:39:41;;;;;;;7.08;5.00;;;;;;;13.62;57.68;101041.63;1686095;85;21570;-67
2021/09/30 07:42:08;;;;;;;8.05;5.30;;;;;;;13.48;54.77;101044.87;1686145;85;21039;-72
2021/09/30 07:44:35;;;;;;;13.65;6.78;;;;;;;12.96;56.39;101047.23;1685876;85;20963;-68
2021/09/30 07:47:02;;;;;;;23.95;8.15;;;;;;;12.47;58.75;101046.45;1686419;84;21113;-71
2021/09/30 07:49:31;;;;;;;12.05;6.90;;;;;;;12.12;59.75;101037.20;1670584;84;21447;-79
2021/09/30 07:51:58;;;;;;;9.90;6.92;;;;;;;11.93;60.50;101037.64;1699079;83;22196;-77
2021/09/30 07:54:25;;;;;;;31.60;11.43;;;;;;;11.80;60.32;101032.25;1698006;84;20985;-85
2021/09/30 07:56:51;;;;;;;9.98;7.08;;;;;;;11.95;60.81;101032.12;1698346;84;20984;-77
2021/09/30 07:59:20;;;;;;;8.48;5.97;;;;;;;12.23;59.38;101031.27;1699614;83;21031;-74
2021/09/30 08:01:53;;;;;;;9.88;5.47;;;;;;;12.47;58.01;101031.30;1715947;83;21489;-73
2021/09/30 08:04:22;;;;;;;7.87;6.00;;;;;;;12.71;57.04;101036.00;1719914;83;21058;-79
2021/09/30 08:06:50;;;;;;;9.70;6.40;;;;;;;13.00;58.42;101031.20;1715814;83;20942;-77
2021/09/30 08:09:21;;;;;;;7.45;5.22;;;;;;;13.44;57.20;101027.27;1720438;83;20874;-75
2021/09/30 08:11:52;;;;;;;6.47;4.83;;;;;;;13.66;53.63;101023.34;1719991;83;21044;-78
2021/09/30 08:14:18;;;;;;;7.85;4.78;;;;;;;13.55;53.83;101023.24;1720546;83;20934;-79
2021/09/30 08:16:47;;;;;;;6.47;4.62;;;;;;;13.69;54.95;101019.16;1720844;83;21125;-78
2021/09/30 08:19:15;;;;;;;9.18;5.08;;;;;;;13.98;53.90;101031.35;1720377;83;20918;-76
2021/09/30 08:21:44;;;;;;;7.83;5.58;;;;;;;13.95;52.16;101031.39;1720466;83;21036;-74
2021/09/30 08:24:13;;;;;;;13.58;7.50;;;;;;;13.55;50.88;101033.72;1720311;83;21018;-80
2021/09/30 08:26:40;;;;;;;7.95;5.67;;;;;;;13.05;52.35;101032.50;1720471;83;21016;-76
2021/09/30 08:29:07;;;;;;;6.92;5.60;;;;;;;12.56;53.64;101035.62;1718173;83;22130;-72
2021/09/30 08:31:33;;;;;;;9.35;6.25;;;;;;;12.18;54.72;101032.70;1696049;83;21040;-75
2021/09/30 08:34:00;;;;;;;8.05;5.87;;;;;;;11.96;54.97;101032.39;1710877;83;20941;-76
2021/09/30 08:36:27;;;;;;;11.40;5.37;;;;;;;11.87;54.88;101043.74;1720549;83;20986;-78
2021/09/30 08:38:54;;;;;;;5.97;4.78;;;;;;;11.98;56.76;101030.16;1719054;83;20953;-75
2021/09/30 08:41:21;;;;;;;8.68;4.83;;;;;;;12.40;53.46;101039.64;1670542;85;20999;-73
2021/09/30 08:43:49;;;;;;;6.90;4.25;;;;;;;12.50;53.28;101037.61;1662609;85;21420;-72
2021/09/30 08:46:17;;;;;;;9.25;5.58;;;;;;;12.36;53.34;101036.66;1686147;84;20950;-75
2021/09/30 08:48:46;;;;;;;8.73;4.67;;;;;;;12.21;53.87;101036.80;1686167;85;21506;-74
2021/09/30 08:51:14;;;;;;;7.37;5.20;;;;;;;12.09;55.11;101036.41;1686640;84;21063;-76
2021/09/30 08:53:40;;;;;;;7.17;4.42;;;;;;;12.04;54.76;101036.45;1677973;84;21549;-72
2021/09/30 08:56:08;;;;;;;7.60;4.78;;;;;;;12.10;54.07;101031.98;1688868;84;21441;-72
2021/09/30 08:58:36;;;;;;;4.78;3.92;;;;;;;12.17;54.11;101031.61;1691020;83;21065;-75
2021/09/30 09:01:07;;;;;;;7.70;4.20;;;;;;;12.17;54.29;101030.23;1687589;84;20999;-76
2021/09/30 09:03:40;;;;;;;4.95;3.75;;;;;;;12.20;53.74;101033.23;1702882;84;20905;-74
2021/09/30 09:06:09;;;;;;;6.97;4.53;;;;;;;12.21;54.06;101036.80;1703048;84;21160;-68
2021/09/30 09:08:36;;;;;;;5.67;4.80;;;;;;;12.40;54.71;101036.34;1703185;84;20937;-70
2021/09/30 09:11:05;;;;;;;10.30;4.72;;;;;;;12.53;52.95;101040.33;1705772;82;20946;-71
2021/09/30 09:13:32;;;;;;;7.62;4.85;;;;;;;12.48;53.48;101039.83;1673525;83;21008;-71
2021/09/30 09:16:02;;;;;;;5.83;4.85;;;;;;;12.49;54.38;101034.59;1697962;83;20980;-71
2021/09/30 09:18:35;;;;;;;6.12;4.40;;;;;;;12.83;53.46;101031.68;1701959;84;21167;-71
2021/09/30 09:21:15;;;;;;;6.92;4.70;;;;;;;13.08;52.37;101025.02;1700541;84;21471;-72
2021/09/30 09:23:56;;;;;;;7.20;4.67;;;;;;;13.14;50.76;101028.53;1700534;84;21492;-70
2021/09/30 09:26:32;;;;;;;8.33;4.62;;;;;;;12.96;51.50;101026.56;1698774;84;21071;-71
2021/09/30 09:29:06;;;;;;;4.70;4.20;;;;;;;12.88;52.35;101034.38;1674234;84;21178;-73
2021/09/30 09:31:41;;;;;;;6.15;4.30;;;;;;;13.20;53.92;101022.68;1672162;84;21309;-72
2021/09/30 09:34:29;;;;;;;9.15;5.75;;;;;;;13.87;49.90;101026.00;1662508;84;20960;-72
2021/09/30 09:37:24;;;;;;;9.78;5.70;;;;;;;14.22;48.76;101022.36;1686438;84;20976;-72
2021/09/30 09:39:51;;;;;;;5.95;5.22;;;;;;;14.11;48.52;101023.11;1698280;84;21468;-72
2021/09/30 09:42:20;;;;;;;5.70;4.17;;;;;;;13.66;48.35;101026.11;1698575;84;20909;-72
2021/09/30 09:45:00;;;;;;;14.55;6.95;;;;;;;13.30;49.75;101036.03;1676642;84;21172;-70
2021/09/30 09:47:31;;;;;;;7.85;4.58;;;;;;;12.98;51.38;101037.56;1696688;83;20916;-72
2021/09/30 09:50:20;;;;;;;9.03;5.08;;;;;;;12.73;51.96;101037.88;1667670;84;20999;-70
2021/09/30 09:52:59;;;;;;;15.53;6.00;;;;;;;12.41;51.80;101039.35;1644944;86;21038;-70
2021/09/30 09:55:38;;;;;;;8.83;5.37;;;;;;;12.14;54.29;101033.56;1681081;83;21086;-70
2021/09/30 09:58:11;;;;;;;11.05;5.80;;;;;;;12.01;54.18;101035.65;1726300;82;22219;-70
2021/09/30 10:00:59;;;;;;;8.85;5.08;;;;;;;12.03;55.84;101036.18;1705148;83;21009;-70
2021/09/30 10:03:28;;;;;;;10.25;5.30;;;;;;;12.22;56.15;101036.52;1708479;83;21489;-70
2021/09/30 10:05:55;;;;;;;10.58;4.53;;;;;;;12.38;53.35;101037.19;1714368;82;20901;-70
2021/09/30 10:08:23;;;;;;;6.22;4.58;;;;;;;12.34;52.95;101035.30;1686846;84;21044;-70
2021/09/30 10:10:53;;;;;;;6.25;4.80;;;;;;;12.43;53.57;101027.48;1698535;84;21119;-70
2021/09/30 10:13:19;;;;;;;9.18;5.40;;;;;;;12.63;53.12;101036.09;1700712;84;21480;-70
2021/09/30 10:15:48;;;;;;;5.75;4.87;;;;;;;12.69;53.25;101035.47;1700539;84;21449;-71
2021/09/30 10:18:15;;;;;;;6.28;4.72;;;;;;;12.70;52.93;101026.09;1700429;84;20952;-70
2021/09/30 10:20:43;;;;;;;15.78;5.78;;;;;;;12.76;53.65;101029.02;1700485;84;21524;-73
2021/09/30 10:23:11;;;;;;;7.25;5.60;;;;;;;12.73;53.04;101028.23;1695723;83;21503;-70
2021/09/30 10:25:40;;;;;;;8.43;5.15;;;;;;;12.77;53.57;101028.72;1685853;84;20916;-71
2021/09/30 10:28:08;;;;;;;7.12;5.03;;;;;;;12.92;51.72;101033.23;1696939;83;20944;-70
2021/09/30 10:30:43;;;;;;;10.38;5.70;;;;;;;12.91;50.24;101031.59;1720658;83;20993;-70
2021/09/30 10:33:13;;;;;;;7.15;5.12;;;;;;;12.88;51.40;101032.17;1723221;83;20937;-70
2021/09/30 10:35:43;;;;;;;6.65;4.40;;;;;;;13.14;51.50;101029.91;1723176;83;21172;-69
2021/09/30 10:38:20;;;;;;;6.42;4.87;;;;;;;13.25;50.76;101032.00;1721271;83;20937;-73
2021/09/30 10:41:13;;;;;;;7.22;4.90;;;;;;;13.10;49.80;101028.30;1689162;84;20953;-68
2021/09/30 10:43:45;;;;;;;10.30;5.40;;;;;;;12.85;49.92;101025.31;1686509;85;20962;-72
2021/09/30 10:46:36;;;;;;;8.00;5.78;;;;;;;12.79;52.97;101031.19;1672471;84;21011;-70
2021/09/30 10:49:26;;;;;;;7.85;5.70;;;;;;;13.15;53.93;101026.85;1689412;84;21740;-72
2021/09/30 10:52:24;;;;;;;7.35;5.50;;;;;;;13.94;53.17;101017.89;1688582;84;20948;-70
2021/09/30 10:55:10;;;;;;;15.10;7.67;;;;;;;14.52;48.66;101014.88;1737965;81;21453;-70
2021/09/30 10:57:42;;;;;;;10.25;6.00;;;;;;;14.76;49.79;101013.30;1735224;81;20922;-71
2021/09/30 11:00:23;;;;;;;10.58;6.78;;;;;;;14.99;47.59;101008.67;1719434;81;21580;-75
2021/09/30 11:03:13;;;;;;;10.90;8.43;;;;;;;14.98;46.95;101015.89;1739126;81;21354;-70
2021/09/30 11:05:42;;;;;;;10.93;7.30;;;;;;;14.77;46.42;101007.20;1717043;81;21056;-69
2021/09/30 11:08:26;;;;;;;7.78;6.80;;;;;;;14.59;47.22;101004.80;1714726;81;21044;-68
2021/09/30 11:11:09;;;;;;;12.65;10.35;;;;;;;14.59;48.05;101003.42;1753239;80;21057;-69
2021/09/30 11:13:42;;;;;;;12.68;9.43;;;;;;;14.36;48.77;101009.39;1739229;80;20996;-71
2021/09/30 11:16:20;;;;;;;12.10;8.30;;;;;;;14.14;49.95;101000.97;1757201;80;21076;-70
2021/09/30 11:18:57;;;;;;;10.50;8.08;;;;;;;14.13;50.32;100996.57;1769123;79;21414;-71
2021/09/30 11:21:37;;;;;;;8.50;7.17;;;;;;;14.48;49.00;100996.45;1757074;80;20943;-70
2021/09/30 11:24:28;;;;;;;8.58;6.58;;;;;;;14.87;47.44;100993.17;1771485;80;21169;-71
2021/09/30 11:27:01;;;;;;;10.53;6.62;;;;;;;15.26;45.43;100993.11;1772057;80;20927;-70
2021/09/30 11:29:29;;;;;;;;;;;;;;;15.38;44.59;100995.59;1758987;80;21486;-71
2021/09/30 11:32:02;;;;;;;8.35;6.97;;;;;;;15.45;46.00;100995.16;1764690;80;20443;-70
2021/09/30 11:34:46;;;;;;;8.05;6.15;;;;;;;15.63;44.79;100993.34;1771796;80;20970;-70
2021/09/30 11:37:36;;;;;;;17.98;8.23;;;;;;;15.80;43.86;100985.16;1770333;80;21090;-70
2021/09/30 11:40:07;;;;;;;7.83;5.85;;;;;;;15.67;43.39;100983.28;1772452;80;21026;-69
2021/09/30 11:42:38;;;;;;;11.12;7.40;;;;;;;15.43;44.50;100983.02;1760540;80;21133;-70
2021/09/30 11:45:17;;;;;;;10.88;7.62;;;;;;;15.22;45.21;100985.19;1765199;80;20892;-70
2021/09/30 11:47:45;;;;;;;9.33;7.87;;;;;;;14.92;45.43;100982.00;1768645;80;21542;-72
2021/09/30 11:50:22;;;;;;;11.40;7.90;;;;;;;14.53;46.77;100983.92;1767992;80;21412;-72
2021/09/30 11:53:00;;;;;;;12.00;8.33;;;;;;;14.40;47.60;100977.83;1758935;80;20978;-69
2021/09/30 11:55:28;;;;;;;12.10;8.18;;;;;;;14.51;48.44;100975.13;1742218;80;21064;-70
2021/09/30 11:58:02;;;;;;;9.03;7.90;;;;;;;14.88;47.75;100974.64;1697159;83;21060;-70
2021/09/30 12:00:29;;;;;;;8.98;6.90;;;;;;;15.33;45.05;100972.75;1717740;81;21634;-70
2021/09/30 12:03:05;;;;;;;10.32;7.37;;;;;;;15.60;44.22;100968.49;1719012;82;21064;-70
2021/09/30 12:05:39;;;;;;;18.00;8.63;;;;;;;15.86;43.13;100961.75;1774494;80;20868;-70
2021/09/30 12:08:07;;;;;;;14.85;8.80;;;;;;;16.14;42.93;100955.47;1751841;80;21784;-72
2021/09/30 12:10:38;;;;;;;9.65;6.78;;;;;;;16.30;42.70;100953.06;1763011;80;38267;-71
2021/09/30 12:13:19;;;;;;;10.35;7.10;;;;;;;16.47;42.56;100955.90;1770480;80;20877;-70
2021/09/30 12:15:46;;;;;;;10.90;7.47;;;;;;;16.48;42.28;100943.67;1752750;80;21006;-70
2021/09/30 12:18:18;;;;;;;11.95;8.15;;;;;;;16.58;41.41;100955.04;1750798;80;21419;-70
2021/09/30 12:20:57;;;;;;;13.80;8.03;;;;;;;16.44;41.93;100949.05;1775979;80;21145;-70
2021/09/30 12:23:26;;;;;;;12.10;7.75;;;;;;;16.51;42.41;100948.01;1739057;80;20929;-70
2021/09/30 12:25:53;;;;;;;14.87;7.50;;;;;;;16.71;41.44;100942.47;1766782;80;20971;-70
2021/09/30 12:28:20;;;;;;;15.83;8.88;;;;;;;16.90;41.26;100944.92;1764283;80;21065;-68
2021/09/30 12:30:48;;;;;;;9.40;7.65;;;;;;;16.98;41.70;100941.91;1764421;80;20839;-68
2021/09/30 12:33:15;;;;;;;12.78;7.20;;;;;;;17.14;40.18;100940.30;1771330;80;21068;-69
2021/09/30 12:35:42;;;;;;;11.85;7.60;;;;;;;17.05;40.37;100938.09;1756457;80;20915;-69
2021/09/30 12:38:16;;;;;;;9.98;7.28;;;;;;;17.09;40.53;100937.68;1741810;80;21012;-70
2021/09/30 12:40:46;;;;;;;25.82;9.30;;;;;;;17.25;39.98;100930.50;1752895;80;21014;-69
2021/09/30 12:43:31;;;;;;;11.57;7.87;;;;;;;17.44;40.35;100927.36;1755454;80;21050;-69
2021/09/30 12:46:02;;;;;;;14.15;7.53;;;;;;;17.63;38.68;100925.05;1782069;80;21147;-69
2021/09/30 12:48:32;;;;;;;15.25;7.62;;;;;;;17.61;38.85;100924.56;1764221;80;21467;-68
2021/09/30 12:51:05;;;;;;;10.38;6.85;;;;;;;17.62;38.96;100922.60;1757932;79;21003;-67
2021/09/30 12:53:41;;;;;;;10.50;7.55;;;;;;;17.64;38.43;100916.96;1772818;80;21404;-68
2021/09/30 12:56:10;;;;;;;14.33;8.18;;;;;;;17.60;38.33;100918.77;1726369;81;20868;-67
2021/09/30 12:58:41;;;;;;;10.88;7.28;;;;;;;17.60;38.74;100916.56;1737344;81;21492;-66
2021/09/30 13:01:30;;;;;;;14.10;7.62;;;;;;;17.85;38.47;100911.55;1727426;81;21022;-70
2021/09/30 13:04:11;;;;;;;9.85;6.00;;;;;;;17.67;37.68;100907.19;1742929;80;20848;-69
2021/09/30 13:06:42;;;;;;;13.93;7.37;;;;;;;17.53;38.51;100910.12;1764161;80;20932;-67
2021/09/30 13:09:21;;;;;;;10.32;6.58;;;;;;;17.65;39.31;100913.61;1740788;80;20974;-69
2021/09/30 13:11:59;;;;;;;10.95;7.55;;;;;;;17.73;38.02;100902.52;1743471;82;21167;-70
2021/09/30 13:14:34;;;;;;;11.55;7.87;;;;;;;17.79;38.86;100904.55;1722308;81;21012;-68
2021/09/30 13:17:13;;;;;;;9.65;7.15;;;;;;;17.93;38.06;100906.52;1733226;80;21546;-68
2021/09/30 13:20:00;;;;;;;14.25;7.75;;;;;;;17.92;37.03;100898.52;1743080;80;20953;-68
2021/09/30 13:22:35;;;;;;;8.60;7.72;;;;;;;17.84;38.67;100884.11;1689415;81;21551;-69
2021/09/30 13:25:06;;;;;;;8.88;7.40;;;;;;;17.85;39.35;100896.84;1741793;80;21923;-69
2021/09/30 13:27:36;;;;;;;10.23;7.87;;;;;;;17.99;38.24;100887.70;1745211;81;21049;-69
2021/09/30 13:30:07;;;;;;;9.73;7.60;;;;;;;18.12;37.49;100886.66;1743550;81;20895;-70
2021/09/30 13:32:35;;;;;;;19.62;12.70;;;;;;;18.19;38.37;100888.34;1726638;81;21578;-71
2021/09/30 13:35:02;;;;;;;10.45;7.25;;;;;;;18.48;38.17;100886.94;1740239;81;21119;-70
2021/09/30 13:37:29;;;;;;;14.18;7.78;;;;;;;18.58;36.00;100881.56;1741815;81;21131;-70
2021/09/30 13:39:56;;;;;;;10.85;7.80;;;;;;;18.41;36.94;100879.73;1748851;81;20992;-70
2021/09/30 13:42:28;;;;;;;11.03;7.47;;;;;;;18.40;37.57;100882.85;1703895;81;21620;-68
2021/09/30 13:44:56;;;;;;;12.88;7.40;;;;;;;18.34;36.96;100878.63;1683249;83;21562;-70
2021/09/30 13:47:28;;;;;;;10.15;8.20;;;;;;;18.17;37.40;100882.31;1711057;83;21636;-71
2021/09/30 13:49:56;;;;;;;10.55;7.47;;;;;;;17.98;37.60;100874.95;1707625;83;21584;-70
2021/09/30 13:52:25;;;;;;;10.90;7.87;;;;;;;17.94;38.55;100871.21;1679867;83;21043;-71
2021/09/30 13:54:52;;;;;;;12.20;8.60;;;;;;;17.88;38.78;100878.95;1727330;80;21031;-71
2021/09/30 13:57:18;;;;;;;10.88;7.90;;;;;;;17.72;38.09;100865.36;1716694;80;21505;-72
2021/09/30 13:59:47;;;;;;;13.53;7.92;;;;;;;17.68;38.17;100861.03;1706543;81;21476;-70
2021/09/30 14:02:13;;;;;;;9.13;7.97;;;;;;;17.71;38.48;100860.37;1701213;83;21526;-71
2021/09/30 14:04:40;;;;;;;13.78;8.28;;;;;;;17.68;38.76;100854.67;1714641;81;20994;-71
2021/09/30 14:07:08;;;;;;;12.58;8.03;;;;;;;17.67;39.33;100853.85;1701328;81;21654;-71
2021/09/30 14:09:35;;;;;;;10.55;7.65;;;;;;;17.57;38.69;100853.36;1694946;83;21147;-72